Time;durP1;ratioP1;P1;durP2;ratioP2;P2;SDS_P1;SDS_P2;PMS_P1;PMS_P2;Temp;Humidity;BMP_temperature;BMP_pressure;BME280_temperature;BME280_humidity;BME280_pressure;Samples;Min_cycle;Max_cycle;Signal;HPM_P1;HPM_P2
2021/07/16 00:00:06;;;;;;;34.35;9.32;;;17.80;99.90;;;;;;5083101;28;20433;-66
2021/07/16 00:02:32;;;;;;;33.05;8.10;;;17.80;99.90;;;;;;5084728;28;20026;-66
2021/07/16 00:04:57;;;;;;;31.35;7.55;;;17.70;99.90;;;;;;5083675;28;20031;-66
2021/07/16 00:07:23;;;;;;;35.97;8.45;;;17.70;99.90;;;;;;5087429;28;20078;-66
2021/07/16 00:09:49;;;;;;;30.83;8.07;;;17.70;99.90;;;;;;5087539;28;20024;-66
2021/07/16 00:12:15;;;;;;;36.42;9.65;;;17.60;99.90;;;;;;5088868;28;20112;-66
2021/07/16 00:14:40;;;;;;;33.95;8.07;;;17.50;99.90;;;;;;5088307;28;20035;-66
2021/07/16 00:17:06;;;;;;;30.67;8.88;;;17.50;99.90;;;;;;5085915;28;20024;-66
2021/07/16 00:19:32;;;;;;;25.92;7.45;;;17.40;99.90;;;;;;5088521;28;20555;-66
2021/07/16 00:21:58;;;;;;;29.30;6.90;;;17.40;99.90;;;;;;5087222;28;20165;-66
2021/07/16 00:24:24;;;;;;;32.83;8.02;;;17.40;99.90;;;;;;5089232;28;20035;-66
2021/07/16 00:26:50;;;;;;;39.42;9.50;;;17.40;99.90;;;;;;5086870;28;20424;-66
2021/07/16 00:29:15;;;;;;;41.75;8.93;;;17.30;99.90;;;;;;5068564;28;20016;-66
2021/07/16 00:31:41;;;;;;;37.78;9.90;;;17.30;99.90;;;;;;5086978;28;20066;-66
2021/07/16 00:34:07;;;;;;;38.15;8.80;;;17.40;99.90;;;;;;5070595;28;20019;-66
2021/07/16 00:36:33;;;;;;;35.58;8.82;;;17.40;99.90;;;;;;5087205;28;20027;-66
2021/07/16 00:38:59;;;;;;;43.95;9.32;;;17.40;99.90;;;;;;5085114;28;20031;-66
2021/07/16 00:41:25;;;;;;;38.03;9.02;;;17.40;99.90;;;;;;5089471;28;20032;-66
2021/07/16 00:43:51;;;;;;;36.10;10.88;;;17.40;99.90;;;;;;5087721;28;21297;-66
2021/07/16 00:46:17;;;;;;;42.47;9.75;;;17.40;99.90;;;;;;5087834;28;20604;-66
2021/07/16 00:48:43;;;;;;;36.17;9.07;;;17.40;99.90;;;;;;5088427;28;20036;-67
2021/07/16 00:51:09;;;;;;;34.40;9.05;;;17.30;99.90;;;;;;5087374;28;20451;-66
2021/07/16 00:53:35;;;;;;;29.48;7.65;;;17.30;99.90;;;;;;5085083;28;20116;-66
2021/07/16 00:56:01;;;;;;;33.50;8.98;;;17.30;99.90;;;;;;5088146;28;20083;-66
2021/07/16 00:58:27;;;;;;;40.60;9.55;;;17.30;99.90;;;;;;5087479;28;20542;-66
2021/07/16 01:00:53;;;;;;;38.97;9.63;;;17.30;99.90;;;;;;5087074;28;20403;-66
2021/07/16 01:03:19;;;;;;;39.28;9.65;;;17.30;99.90;;;;;;5086521;28;20720;-66
2021/07/16 01:05:44;;;;;;;38.13;7.82;;;17.30;99.90;;;;;;5085917;28;20048;-66
2021/07/16 01:08:10;;;;;;;42.55;9.30;;;17.30;99.90;;;;;;5086395;28;20028;-66
2021/07/16 01:10:37;;;;;;;38.08;8.70;;;17.30;99.90;;;;;;5068667;28;20032;-66
2021/07/16 01:13:04;;;;;;;36.22;9.27;;;17.30;99.90;;;;;;5087079;28;20031;-66
2021/07/16 01:15:32;;;;;;;38.28;9.10;;;17.30;99.90;;;;;;5086050;28;20643;-66
2021/07/16 01:17:58;;;;;;;41.45;10.27;;;17.30;99.90;;;;;;5086705;28;20028;-66
2021/07/16 01:20:29;;;;;;;36.40;9.85;;;17.20;99.90;;;;;;5087235;28;20027;-66
2021/07/16 01:22:58;;;;;;;36.72;9.82;;;17.20;99.90;;;;;;5088525;28;20052;-66
2021/07/16 01:25:26;;;;;;;32.47;8.65;;;17.00;99.90;;;;;;5086458;28;20035;-66
2021/07/16 01:27:54;;;;;;;39.20;10.23;;;17.00;99.90;;;;;;5088551;28;20048;-66
2021/07/16 01:30:22;;;;;;;35.05;8.90;;;17.00;99.90;;;;;;5084819;28;20031;-66
2021/07/16 01:32:49;;;;;;;34.38;8.95;;;17.00;99.90;;;;;;5086854;28;20042;-66
2021/07/16 01:35:16;;;;;;;30.52;8.70;;;16.90;99.90;;;;;;5085573;28;20031;-66
2021/07/16 01:37:42;;;;;;;36.92;9.75;;;16.90;99.90;;;;;;5086209;28;20032;-65
2021/07/16 01:40:19;;;;;;;33.45;7.88;;;16.80;99.90;;;;;;5051240;28;20081;-63
2021/07/16 01:42:49;;;;;;;34.50;8.95;;;16.80;99.90;;;;;;5085784;28;20040;-61
2021/07/16 01:45:18;;;;;;;31.85;8.70;;;16.70;99.90;;;;;;5087366;28;20044;-62
2021/07/16 01:47:56;;;;;;;32.63;8.30;;;16.80;99.90;;;;;;5088370;28;20425;-64
2021/07/16 01:50:23;;;;;;;36.45;8.63;;;16.70;99.90;;;;;;5088086;28;20364;-64
2021/07/16 01:52:50;;;;;;;29.13;7.70;;;16.60;99.90;;;;;;5086200;28;20024;-62
2021/07/16 01:55:18;;;;;;;33.72;8.82;;;16.50;99.90;;;;;;5087546;28;20047;-62
2021/07/16 01:57:52;;;;;;;39.80;9.35;;;16.50;99.90;;;;;;5084743;28;20020;-63
2021/07/16 02:00:22;;;;;;;25.55;8.15;;;16.50;99.90;;;;;;5085436;28;20027;-64
2021/07/16 02:02:53;;;;;;;34.20;9.43;;;16.60;99.90;;;;;;5086942;28;20073;-64
2021/07/16 02:05:20;;;;;;;31.17;9.48;;;16.50;99.90;;;;;;5086187;28;20039;-64
2021/07/16 02:07:48;;;;;;;29.67;9.73;;;16.30;99.90;;;;;;5084629;28;20721;-64
2021/07/16 02:10:14;;;;;;;32.40;9.35;;;16.20;99.90;;;;;;5084158;28;20027;-64
2021/07/16 02:12:40;;;;;;;31.05;8.18;;;16.20;99.90;;;;;;5087523;28;20031;-64
2021/07/16 02:15:26;;;;;;;27.33;8.30;;;16.20;99.90;;;;;;5086065;28;20039;-64
2021/07/16 02:17:52;;;;;;;24.35;6.18;;;16.10;99.90;;;;;;5086258;28;20036;-64
2021/07/16 02:20:28;;;;;;;26.17;7.60;;;16.10;99.90;;;;;;5086011;28;20031;-63
2021/07/16 02:22:56;;;;;;;20.40;6.75;;;16.10;99.90;;;;;;5085636;28;20035;-64
2021/07/16 02:25:24;;;;;;;34.97;8.00;;;16.10;99.90;;;;;;5086351;28;20027;-64
2021/07/16 02:27:54;;;;;;;24.50;7.03;;;16.10;99.90;;;;;;5062259;28;20123;-64
2021/07/16 02:30:21;;;;;;;25.30;6.63;;;16.10;99.90;;;;;;5065067;28;20032;-64
2021/07/16 02:32:47;;;;;;;32.13;8.70;;;16.10;99.90;;;;;;5064765;28;20071;-64
2021/07/16 02:35:15;;;;;;;24.13;6.47;;;16.00;99.90;;;;;;5065802;28;20459;-64
2021/07/16 02:37:41;;;;;;;28.55;8.10;;;16.00;99.90;;;;;;5047143;28;20581;-64
2021/07/16 02:40:09;;;;;;;23.30;7.03;;;15.90;99.90;;;;;;5064474;28;20499;-63
2021/07/16 02:42:35;;;;;;;30.20;8.57;;;15.90;99.90;;;;;;5066269;28;20032;-64
2021/07/16 02:45:12;;;;;;;23.98;7.38;;;15.90;99.90;;;;;;5066168;28;20046;-63
2021/07/16 02:47:39;;;;;;;24.33;6.45;;;15.90;99.90;;;;;;5065094;28;20617;-64
2021/07/16 02:50:10;;;;;;;33.80;8.00;;;15.90;99.90;;;;;;5065873;28;20350;-64
2021/07/16 02:52:36;;;;;;;29.20;7.88;;;15.90;99.90;;;;;;5064988;28;20032;-64
2021/07/16 02:55:03;;;;;;;25.73;7.40;;;15.90;99.90;;;;;;5064401;28;20062;-64
2021/07/16 02:57:29;;;;;;;25.52;6.82;;;16.00;99.90;;;;;;5065280;28;20028;-64
2021/07/16 02:59:55;;;;;;;27.42;7.80;;;16.00;99.90;;;;;;5065167;28;20024;-64
2021/07/16 03:02:21;;;;;;;29.77;9.50;;;15.90;99.90;;;;;;5067556;28;20024;-64
2021/07/16 03:04:49;;;;;;;29.48;8.68;;;16.00;99.90;;;;;;5063215;28;20059;-64
2021/07/16 03:07:16;;;;;;;32.38;8.77;;;16.00;99.90;;;;;;5060919;28;20840;-64
2021/07/16 03:09:42;;;;;;;27.90;8.00;;;16.00;99.90;;;;;;5063852;28;20602;-64
2021/07/16 03:12:08;;;;;;;24.30;8.68;;;15.90;99.90;;;;;;5066779;28;20032;-63
2021/07/16 03:14:34;;;;;;;25.58;7.47;;;15.90;99.90;;;;;;5064710;28;20024;-64
2021/07/16 03:16:59;;;;;;;23.10;7.68;;;15.80;99.90;;;;;;5062288;28;20282;-64
2021/07/16 03:19:25;;;;;;;26.63;8.63;;;15.80;99.90;;;;;;5065077;28;20036;-64
2021/07/16 03:21:51;;;;;;;21.42;7.57;;;15.90;99.90;;;;;;5064334;28;20028;-64
2021/07/16 03:24:19;;;;;;;36.80;8.52;;;15.90;99.90;;;;;;5062426;28;20032;-64
2021/07/16 03:26:45;;;;;;;37.42;8.93;;;15.90;99.90;;;;;;5069277;28;20052;-63
2021/07/16 03:29:12;;;;;;;37.45;9.73;;;15.90;99.90;;;;;;5084843;28;20026;-64
2021/07/16 03:31:38;;;;;;;36.95;9.45;;;16.00;99.90;;;;;;5085282;28;20365;-64
2021/07/16 03:34:04;;;;;;;43.15;9.88;;;16.10;99.90;;;;;;5084486;28;20035;-64
2021/07/16 03:36:29;;;;;;;36.13;9.75;;;16.10;99.90;;;;;;5081453;28;20052;-64
2021/07/16 03:38:55;;;;;;;31.77;9.25;;;16.20;99.90;;;;;;5082710;28;20032;-64
2021/07/16 03:41:22;;;;;;;38.58;9.68;;;16.30;99.90;;;;;;5083313;28;20084;-64
2021/07/16 03:43:47;;;;;;;32.38;8.90;;;16.30;99.90;;;;;;5083078;28;20389;-64
2021/07/16 03:46:16;;;;;;;36.95;8.75;;;16.30;99.90;;;;;;5080384;28;20459;-64
2021/07/16 03:48:42;;;;;;;43.47;9.75;;;16.40;99.90;;;;;;5080816;28;20024;-64
2021/07/16 03:51:08;;;;;;;38.28;9.73;;;16.30;99.90;;;;;;5082653;28;20031;-64
2021/07/16 03:53:35;;;;;;;33.25;9.55;;;16.40;99.90;;;;;;5082484;28;20038;-63
2021/07/16 03:56:01;;;;;;;36.47;10.13;;;16.40;99.90;;;;;;5082273;28;20067;-64
2021/07/16 03:58:27;;;;;;;41.97;10.93;;;16.50;99.90;;;;;;5085114;28;20123;-64
2021/07/16 04:00:53;;;;;;;43.53;10.32;;;16.50;99.90;;;;;;5084988;28;20046;-64
2021/07/16 04:03:21;;;;;;;30.10;9.15;;;16.60;99.90;;;;;;5081996;28;20055;-64
2021/07/16 04:05:47;;;;;;;40.33;9.95;;;16.70;99.90;;;;;;5081588;28;20433;-64
2021/07/16 04:08:17;;;;;;;38.95;8.85;;;16.70;99.90;;;;;;5083892;28;20035;-70
2021/07/16 04:10:43;;;;;;;39.05;10.20;;;16.80;99.90;;;;;;5082711;28;20027;-67
2021/07/16 04:13:12;;;;;;;36.97;9.18;;;16.90;99.90;;;;;;5060524;28;20531;-65
2021/07/16 04:15:41;;;;;;;36.10;9.95;;;16.90;99.90;;;;;;5081854;28;20510;-65
2021/07/16 04:18:08;;;;;;;28.85;8.45;;;17.00;99.90;;;;;;5081393;28;20108;-65
2021/07/16 04:20:35;;;;;;;35.42;9.18;;;17.10;99.90;;;;;;5083605;28;20034;-65
2021/07/16 04:23:02;;;;;;;36.58;9.20;;;17.20;99.90;;;;;;5085194;28;20038;-65
2021/07/16 04:25:28;;;;;;;39.65;10.73;;;17.30;99.90;;;;;;5086796;28;20065;-65
2021/07/16 04:28:00;;;;;;;29.42;8.93;;;17.50;99.90;;;;;;5082021;28;20332;-65
2021/07/16 04:30:27;;;;;;;37.92;8.90;;;17.60;99.90;;;;;;5083361;28;20385;-65
2021/07/16 04:32:55;;;;;;;38.58;9.80;;;17.70;99.90;;;;;;5084948;28;20039;-65
2021/07/16 04:35:22;;;;;;;31.70;8.70;;;17.80;99.90;;;;;;5085117;28;20787;-65
2021/07/16 04:37:49;;;;;;;30.05;8.80;;;17.90;99.90;;;;;;5081359;28;20526;-66
2021/07/16 04:40:20;;;;;;;31.95;9.95;;;18.00;99.90;;;;;;5081250;28;20111;-65
2021/07/16 04:42:47;;;;;;;30.40;8.98;;;18.10;99.90;;;;;;5084356;28;20593;-65
2021/07/16 04:45:13;;;;;;;31.45;9.85;;;18.20;99.90;;;;;;5084807;28;20085;-65
2021/07/16 04:47:42;;;;;;;31.83;8.70;;;18.30;99.90;;;;;;5064490;28;20031;-65
2021/07/16 04:50:09;;;;;;;31.15;9.60;;;18.40;99.90;;;;;;5083556;28;20501;-65
2021/07/16 04:52:42;;;;;;;30.83;9.80;;;18.40;99.90;;;;;;5090124;28;20118;-66
2021/07/16 04:55:09;;;;;;;37.45;9.00;;;18.50;99.90;;;;;;5066197;28;20032;-65
2021/07/16 04:57:35;;;;;;;38.83;8.88;;;18.60;99.90;;;;;;5084746;28;20107;-65
2021/07/16 05:00:06;;;;;;;31.90;8.15;;;18.70;99.90;;;;;;5083330;28;20034;-66
2021/07/16 05:02:32;;;;;;;34.60;8.45;;;18.80;99.90;;;;;;5078033;28;20028;-65
2021/07/16 05:04:58;;;;;;;36.63;9.57;;;19.00;99.90;;;;;;5083314;28;20042;-66
2021/07/16 05:07:24;;;;;;;34.53;9.13;;;19.10;99.90;;;;;;5069244;28;20036;-65
2021/07/16 05:09:49;;;;;;;39.05;9.13;;;19.20;99.90;;;;;;5052170;28;20024;-66
2021/07/16 05:12:15;;;;;;;30.92;8.70;;;19.30;99.90;;;;;;5068261;28;20566;-66
2021/07/16 05:14:41;;;;;;;32.50;9.18;;;19.40;99.90;;;;;;5089030;28;20036;-66
2021/07/16 05:17:08;;;;;;;37.38;9.20;;;19.50;99.90;;;;;;5085502;28;20028;-66
2021/07/16 05:19:33;;;;;;;38.22;9.57;;;19.60;99.90;;;;;;5089191;28;20034;-66
2021/07/16 05:22:01;;;;;;;34.53;8.80;;;19.60;99.90;;;;;;5087747;28;20024;-66
2021/07/16 05:24:27;;;;;;;35.83;9.30;;;19.60;99.90;;;;;;5088114;28;20111;-66
2021/07/16 05:26:53;;;;;;;41.78;9.55;;;19.70;99.90;;;;;;5088628;28;20052;-65
2021/07/16 05:29:19;;;;;;;32.30;9.07;;;19.80;99.90;;;;;;5089732;28;20035;-66
2021/07/16 05:31:44;;;;;;;34.38;8.82;;;19.80;99.90;;;;;;5089774;28;20391;-66
2021/07/16 05:34:10;;;;;;;30.52;8.73;;;19.80;99.90;;;;;;5089976;28;20089;-66
2021/07/16 05:36:36;;;;;;;31.55;8.48;;;19.80;99.90;;;;;;5085740;28;20534;-66
2021/07/16 05:39:05;;;;;;;30.67;8.55;;;20.00;99.90;;;;;;5089808;28;20127;-66
2021/07/16 05:41:31;;;;;;;35.88;9.10;;;20.20;99.90;;;;;;5088076;28;20028;-66
2021/07/16 05:43:57;;;;;;;33.13;8.32;;;20.30;99.90;;;;;;5088381;28;20031;-66
2021/07/16 05:46:23;;;;;;;27.42;8.38;;;20.40;99.90;;;;;;5088249;28;20368;-66
2021/07/16 05:48:49;;;;;;;35.28;7.70;;;20.50;99.90;;;;;;5088268;28;20360;-66
2021/07/16 05:51:15;;;;;;;29.02;8.15;;;20.60;99.90;;;;;;5087812;28;20555;-66
2021/07/16 05:53:41;;;;;;;27.48;8.43;;;20.70;99.90;;;;;;5088999;28;20042;-66
2021/07/16 05:56:07;;;;;;;29.25;7.75;;;21.00;99.90;;;;;;5088304;28;20238;-66
2021/07/16 05:58:33;;;;;;;26.77;7.05;;;21.10;99.90;;;;;;5088382;28;20032;-66
2021/07/16 06:00:59;;;;;;;26.23;6.70;;;21.40;99.90;;;;;;5089188;28;20426;-68
2021/07/16 06:03:25;;;;;;;31.45;7.90;;;21.70;99.90;;;;;;5088155;28;20056;-69
2021/07/16 06:05:50;;;;;;;27.77;7.68;;;22.10;99.90;;;;;;5070775;28;20035;-69
2021/07/16 06:08:16;;;;;;;26.33;7.60;;;22.40;99.90;;;;;;5085882;28;20024;-69
2021/07/16 06:10:42;;;;;;;23.67;6.53;;;22.60;99.90;;;;;;5088998;28;20028;-69
2021/07/16 06:13:08;;;;;;;28.77;7.88;;;22.80;99.90;;;;;;5089041;28;20127;-69
2021/07/16 06:15:34;;;;;;;25.10;7.00;;;23.00;99.90;;;;;;5086945;28;20026;-69
2021/07/16 06:18:00;;;;;;;29.73;7.78;;;23.20;99.90;;;;;;5070455;28;20038;-69
2021/07/16 06:20:26;;;;;;;31.13;7.68;;;23.30;99.90;;;;;;5087644;28;20081;-69
2021/07/16 06:22:51;;;;;;;24.73;6.63;;;23.40;99.90;;;;;;5089088;28;20028;-69
2021/07/16 06:25:18;;;;;;;26.25;6.30;;;23.40;99.90;;;;;;5087461;28;20028;-68
2021/07/16 06:27:44;;;;;;;21.70;5.72;;;23.60;99.90;;;;;;5086710;28;20286;-69
2021/07/16 06:30:12;;;;;;;24.42;6.75;;;23.90;99.90;;;;;;5087284;28;20024;-66
2021/07/16 06:32:38;;;;;;;23.55;7.18;;;23.80;99.90;;;;;;5087925;28;20469;-67
2021/07/16 06:35:07;;;;;;;29.05;7.40;;;23.90;99.90;;;;;;5087279;28;20027;-67
2021/07/16 06:37:33;;;;;;;26.38;7.55;;;24.00;99.90;;;;;;5088106;28;20031;-67
2021/07/16 06:40:01;;;;;;;22.13;7.05;;;24.40;99.90;;;;;;5087504;28;20032;-67
2021/07/16 06:42:27;;;;;;;21.42;6.63;;;24.80;99.90;;;;;;5087805;28;20039;-67
2021/07/16 06:44:53;;;;;;;20.35;6.05;;;25.00;99.90;;;;;;5086697;28;20115;-67
2021/07/16 06:47:18;;;;;;;22.73;6.13;;;25.00;99.90;;;;;;5087507;28;20377;-67
2021/07/16 06:49:46;;;;;;;21.55;5.57;;;25.50;99.90;;;;;;5085707;28;20169;-67
2021/07/16 06:52:13;;;;;;;18.55;4.93;;;25.70;99.90;;;;;;5087675;28;20024;-70
2021/07/16 06:54:39;;;;;;;23.35;6.47;;;26.00;99.90;;;;;;5087522;28;20608;-69
2021/07/16 06:57:05;;;;;;;19.20;6.10;;;26.20;99.90;;;;;;5086297;28;20522;-70
2021/07/16 06:59:31;;;;;;;26.15;7.60;;;26.10;99.90;;;;;;5087917;28;20026;-70
2021/07/16 07:01:57;;;;;;;22.27;5.85;;;26.20;99.90;;;;;;5087994;28;20552;-70
2021/07/16 07:04:23;;;;;;;21.17;5.95;;;26.50;99.90;;;;;;5087459;28;20418;-70
2021/07/16 07:06:50;;;;;;;23.00;6.15;;;26.70;99.90;;;;;;5087672;28;20449;-70
2021/07/16 07:09:17;;;;;;;20.98;6.00;;;27.00;99.90;;;;;;5087348;28;20020;-69
2021/07/16 07:11:43;;;;;;;17.50;6.28;;;27.00;99.90;;;;;;5086611;28;20799;-72
2021/07/16 07:14:08;;;;;;;26.90;7.70;;;26.90;99.90;;;;;;5088027;28;20047;-72
2021/07/16 07:16:35;;;;;;;20.33;5.90;;;26.90;99.90;;;;;;5069192;28;20028;-73
2021/07/16 07:19:01;;;;;;;21.92;5.90;;;26.90;99.90;;;;;;5086342;28;20027;-72
2021/07/16 07:21:28;;;;;;;23.30;6.57;;;27.20;99.90;;;;;;5087044;28;20035;-72
2021/07/16 07:23:53;;;;;;;20.55;6.43;;;27.20;99.90;;;;;;5086995;28;20081;-72
2021/07/16 07:26:19;;;;;;;22.02;7.28;;;27.00;99.90;;;;;;5087452;28;20044;-69
2021/07/16 07:28:45;;;;;;;22.60;7.22;;;26.90;99.90;;;;;;5086371;28;20051;-70
2021/07/16 07:31:11;;;;;;;22.20;6.53;;;26.80;99.90;;;;;;5069039;28;20024;-70
2021/07/16 07:33:36;;;;;;;18.52;5.72;;;26.90;99.90;;;;;;5086480;28;20491;-69
2021/07/16 07:36:02;;;;;;;19.10;5.65;;;27.10;99.90;;;;;;5086507;28;20050;-69
2021/07/16 07:38:32;;;;;;;15.25;5.18;;;27.20;99.90;;;;;;5087126;28;20121;-70
2021/07/16 07:40:58;;;;;;;22.23;6.70;;;27.50;99.90;;;;;;5087033;28;20510;-70
2021/07/16 07:43:24;;;;;;;19.77;5.40;;;27.90;99.90;;;;;;5086886;28;20326;-70
2021/07/16 07:45:50;;;;;;;17.52;6.05;;;28.10;99.90;;;;;;5086314;28;20047;-70
2021/07/16 07:48:16;;;;;;;21.77;6.65;;;28.30;99.90;;;;;;5084835;28;20528;-70
2021/07/16 07:50:42;;;;;;;18.30;5.55;;;28.40;99.90;;;;;;5085025;28;20459;-70
2021/07/16 07:53:08;;;;;;;19.95;5.97;;;28.60;99.90;;;;;;5085072;28;20024;-72
2021/07/16 07:55:33;;;;;;;15.73;5.38;;;28.80;99.90;;;;;;5087204;28;20047;-72
2021/07/16 07:57:59;;;;;;;17.17;5.57;;;28.80;99.90;;;;;;5087211;28;20028;-72
2021/07/16 08:00:26;;;;;;;16.10;5.18;;;29.00;99.90;;;;;;5085754;28;20020;-71
2021/07/16 08:02:52;;;;;;;18.77;5.18;;;29.10;99.90;;;;;;5087211;28;20027;-70
2021/07/16 08:05:18;;;;;;;13.30;4.45;;;29.30;99.90;;;;;;5086285;28;20428;-71
2021/07/16 08:07:44;;;;;;;14.38;4.68;;;29.70;99.90;;;;;;5087464;28;20063;-71
2021/07/16 08:10:13;;;;;;;18.63;5.50;;;29.80;99.90;;;;;;5086397;28;20680;-71
2021/07/16 08:12:40;;;;;;;13.57;4.75;;;30.00;99.90;;;;;;5084528;28;20047;-71
2021/07/16 08:15:08;;;;;;;15.52;5.38;;;29.80;99.90;;;;;;5086804;28;20017;-71
2021/07/16 08:17:34;;;;;;;18.65;5.20;;;29.80;99.90;;;;;;5086069;28;20111;-71
2021/07/16 08:20:00;;;;;;;22.30;6.22;;;29.90;99.90;;;;;;5068109;28;20052;-71
2021/07/16 08:22:26;;;;;;;18.38;5.40;;;30.10;99.90;;;;;;5068559;28;20323;-71
2021/07/16 08:24:51;;;;;;;17.20;5.10;;;30.30;99.90;;;;;;5086256;28;20338;-71
2021/07/16 08:27:17;;;;;;;17.75;5.95;;;30.70;99.90;;;;;;5089448;28;20052;-71
2021/07/16 08:29:43;;;;;;;16.50;5.40;;;30.90;99.90;;;;;;5089757;28;20421;-71
2021/07/16 08:32:09;;;;;;;20.25;5.50;;;31.00;99.90;;;;;;5090526;28;20042;-71
2021/07/16 08:34:35;;;;;;;21.70;6.03;;;31.00;99.90;;;;;;5090321;28;20048;-72
2021/07/16 08:37:01;;;;;;;16.00;5.60;;;31.20;99.90;;;;;;5071402;28;20123;-71
2021/07/16 08:39:27;;;;;;;25.35;6.90;;;31.50;99.90;;;;;;5088554;28;20024;-71
2021/07/16 08:41:54;;;;;;;16.75;6.18;;;31.50;99.90;;;;;;5091104;28;20074;-71
2021/07/16 08:44:20;;;;;;;22.50;6.18;;;31.10;99.90;;;;;;5090294;28;20092;-71
2021/07/16 08:46:47;;;;;;;17.52;5.45;;;31.10;99.90;;;;;;5088893;28;20043;-71
2021/07/16 08:49:15;;;;;;;17.25;6.18;;;31.20;99.90;;;;;;5089320;28;20035;-72
2021/07/16 08:51:42;;;;;;;17.45;5.63;;;31.30;99.90;;;;;;5069979;28;20035;-71
2021/07/16 08:54:11;;;;;;;19.25;5.90;;;31.60;99.90;;;;;;5090010;28;20016;-72
2021/07/16 08:56:37;;;;;;;15.70;5.25;;;31.40;99.90;;;;;;5088696;28;20479;-72
2021/07/16 08:59:08;;;;;;;19.65;5.75;;;31.50;99.90;;;;;;5089413;28;20380;-72
2021/07/16 09:01:39;;;;;;;18.65;5.95;;;31.50;99.90;;;;;;5090604;28;20092;-72
2021/07/16 09:04:07;;;;;;;19.80;5.15;;;31.80;99.90;;;;;;5089558;28;20437;-71
2021/07/16 09:06:46;;;;;;;17.88;5.45;;;31.80;99.90;;;;;;5089259;28;20075;-72
2021/07/16 09:09:14;;;;;;;18.60;5.60;;;32.00;99.90;;;;;;5087355;28;20035;-71
2021/07/16 09:11:51;;;;;;;13.68;4.32;;;32.30;99.70;;;;;;5089564;28;20432;-71
2021/07/16 09:14:25;;;;;;;14.77;5.10;;;32.50;99.90;;;;;;5088838;28;20047;-72
2021/07/16 09:17:08;;;;;;;17.40;5.65;;;32.50;99.30;;;;;;5089861;28;20467;-72
2021/07/16 09:19:43;;;;;;;16.75;4.82;;;32.60;99.90;;;;;;5088609;28;20039;-72
2021/07/16 09:22:11;;;;;;;12.75;4.43;;;32.60;99.90;;;;;;5088693;28;20077;-72
2021/07/16 09:24:41;;;;;;;15.73;5.38;;;32.80;99.80;;;;;;5086064;28;20045;-72
2021/07/16 09:27:32;;;;;;;17.75;5.18;;;32.90;99.50;;;;;;5085969;28;20059;-72
2021/07/16 09:30:20;;;;;;;17.52;5.20;;;32.90;99.10;;;;;;5089301;28;20032;-72
2021/07/16 09:32:59;;;;;;;15.77;4.93;;;33.00;98.60;;;;;;5089075;28;20028;-72
2021/07/16 09:35:27;;;;;;;20.55;5.10;;;33.10;99.50;;;;;;5085240;28;20066;-72
2021/07/16 09:38:05;;;;;;;12.98;4.57;;;33.50;99.00;;;;;;5087860;28;20414;-72
2021/07/16 09:40:34;;;;;;;14.30;4.65;;;33.60;98.40;;;;;;5088654;28;20074;-72
2021/07/16 09:43:07;;;;;;;13.48;4.90;;;33.80;97.70;;;;;;5087828;28;20077;-73
2021/07/16 09:45:34;;;;;;;8.45;4.35;;;33.80;98.20;;;;;;5087223;28;20135;-73
2021/07/16 09:48:23;;;;;;;10.55;4.60;;;34.00;97.90;;;;;;5085505;28;20050;-73
2021/07/16 09:50:50;;;;;;;9.07;4.50;;;34.30;96.50;;;;;;5088649;28;20094;-73
2021/07/16 09:53:26;;;;;;;10.50;4.65;;;34.80;97.20;;;;;;5087592;28;20586;-73
2021/07/16 09:56:17;;;;;;;9.30;4.20;;;35.10;96.80;;;;;;5088952;28;20032;-73
2021/07/16 09:58:43;;;;;;;10.93;4.43;;;35.20;96.50;;;;;;5088530;28;20546;-73
2021/07/16 10:01:10;;;;;;;8.32;4.80;;;35.30;95.20;;;;;;5088649;28;20623;-73
2021/07/16 10:03:38;;;;;;;8.27;4.15;;;35.30;95.50;;;;;;5088906;28;20077;-73
2021/07/16 10:06:04;;;;;;;11.60;4.07;;;35.20;95.10;;;;;;5088586;28;20071;-73
2021/07/16 10:08:33;;;;;;;6.20;4.03;;;35.00;94.70;;;;;;5087383;28;20143;-73
2021/07/16 10:11:03;;;;;;;;;;;35.20;95.10;;;;;;5089412;28;20024;-73
2021/07/16 10:13:31;;;;;;;8.07;4.18;;;35.20;95.10;;;;;;5088106;28;19946;-73
2021/07/16 10:15:58;;;;;;;9.68;4.00;;;35.40;95.00;;;;;;5088871;28;20028;-73
2021/07/16 10:18:25;;;;;;;8.25;3.88;;;35.80;95.30;;;;;;5088076;28;20028;-73
2021/07/16 10:20:51;;;;;;;8.98;4.38;;;36.10;95.10;;;;;;5088523;28;20553;-74
2021/07/16 10:23:18;;;;;;;11.85;4.50;;;36.10;94.80;;;;;;5089571;28;20036;-74
2021/07/16 10:25:48;;;;;;;7.75;4.10;;;36.00;94.90;;;;;;5088615;28;20039;-73
2021/07/16 10:28:44;;;;;;;6.45;3.80;;;36.00;94.80;;;;;;5086651;28;20053;-73
2021/07/16 10:31:28;;;;;;;8.95;3.90;;;36.00;94.60;;;;;;5088582;28;20071;-74
2021/07/16 10:34:18;;;;;;;8.77;3.78;;;36.00;94.00;;;;;;5089132;28;20039;-73
2021/07/16 10:36:46;;;;;;;8.32;4.07;;;36.10;94.40;;;;;;5080022;28;20051;-74
2021/07/16 10:39:18;;;;;;;8.60;4.18;;;36.10;93.60;;;;;;5085440;28;20578;-73
2021/07/16 10:41:45;;;;;;;14.23;4.68;;;36.30;93.80;;;;;;5086911;28;20084;-73
2021/07/16 10:44:35;;;;;;;6.97;3.97;;;36.30;93.70;;;;;;5085510;28;20023;-73
2021/07/16 10:47:00;;;;;;;8.25;4.25;;;36.10;93.50;;;;;;5086130;28;20048;-74
2021/07/16 10:49:53;;;;;;;8.70;4.30;;;36.10;93.00;;;;;;5087430;28;20090;-74
2021/07/16 10:52:43;;;;;;;5.32;3.63;;;36.20;92.70;;;;;;5087493;28;20034;-73
2021/07/16 10:55:10;;;;;;;6.60;4.03;;;36.60;93.60;;;;;;5086496;28;20044;-74
2021/07/16 10:57:40;;;;;;;7.70;3.83;;;36.50;92.50;;;;;;5087098;28;20028;-73
2021/07/16 11:00:13;;;;;;;6.53;3.58;;;36.60;92.30;;;;;;5087317;28;20070;-74
2021/07/16 11:02:44;;;;;;;6.30;4.20;;;36.60;91.80;;;;;;5086309;28;20363;-75
2021/07/16 11:05:32;;;;;;;7.43;4.25;;;36.80;91.60;;;;;;5087485;28;20146;-74
2021/07/16 11:07:59;;;;;;;9.25;4.22;;;36.50;92.50;;;;;;5087929;28;20036;-73
2021/07/16 11:10:47;;;;;;;5.72;4.15;;;36.60;93.00;;;;;;5086459;28;20405;-73
2021/07/16 11:13:35;;;;;;;9.93;4.43;;;36.80;91.80;;;;;;5085656;28;20043;-74
2021/07/16 11:16:31;;;;;;;7.35;4.05;;;37.00;92.60;;;;;;5087764;28;20035;-74
2021/07/16 11:19:08;;;;;;;8.00;4.50;;;37.00;92.20;;;;;;5086953;28;20651;-74
2021/07/16 11:21:40;;;;;;;8.00;4.43;;;37.50;91.50;;;;;;5085851;28;20024;-74
2021/07/16 11:24:15;;;;;;;7.95;3.95;;;37.60;92.00;;;;;;5053157;28;20027;-74
2021/07/16 11:26:54;;;;;;;6.65;3.60;;;37.60;90.80;;;;;;5085323;28;20045;-74
2021/07/16 11:29:22;;;;;;;4.53;3.58;;;37.30;90.60;;;;;;5087747;28;20027;-73
2021/07/16 11:31:59;;;;;;;;;;;37.10;91.20;;;;;;5087951;28;20471;-74
2021/07/16 11:34:25;;;;;;;7.28;4.00;;;36.90;91.80;;;;;;5087802;28;19911;-74
2021/07/16 11:36:53;;;;;;;4.47;3.22;;;36.80;90.90;;;;;;5085512;28;20027;-74
2021/07/16 11:39:34;;;;;;;5.57;3.25;;;36.60;91.10;;;;;;5088048;28;20570;-74
2021/07/16 11:42:04;;;;;;;6.50;3.80;;;36.80;91.00;;;;;;5086754;28;20075;-74
2021/07/16 11:44:35;;;;;;;5.15;3.20;;;37.00;91.20;;;;;;5087229;28;20124;-74
2021/07/16 11:47:16;;;;;;;4.43;3.45;;;37.30;90.80;;;;;;5067512;28;20028;-74
2021/07/16 11:49:47;;;;;;;7.15;3.50;;;37.20;91.10;;;;;;5086561;28;20149;-74
2021/07/16 11:52:24;;;;;;;5.90;3.75;;;37.10;90.40;;;;;;5086727;28;20446;-74
2021/07/16 11:54:54;;;;;;;5.70;3.60;;;37.30;90.20;;;;;;5085639;28;20028;-74
2021/07/16 11:57:20;;;;;;;5.10;3.70;;;37.60;90.20;;;;;;5067614;28;20090;-74
2021/07/16 11:59:52;;;;;;;6.15;3.60;;;37.60;90.00;;;;;;5085855;28;20028;-74
2021/07/16 12:02:23;;;;;;;9.48;4.40;;;37.20;90.80;;;;;;5067419;28;20028;-74
2021/07/16 12:04:51;;;;;;;8.55;3.95;;;37.00;90.30;;;;;;5086830;28;20105;-75
2021/07/16 12:07:18;;;;;;;5.53;3.75;;;37.00;90.50;;;;;;5086569;28;20055;-73
2021/07/16 12:09:45;;;;;;;4.93;3.97;;;37.40;90.10;;;;;;5082044;28;20032;-74
2021/07/16 12:12:13;;;;;;;4.90;3.63;;;37.40;90.70;;;;;;5078033;28;20490;-75
2021/07/16 12:14:52;;;;;;;;;;;37.40;89.50;;;;;;5080438;28;20027;-74
2021/07/16 12:17:27;;;;;;;4.90;3.78;;;37.50;90.00;;;;;;5078338;28;20414;-74
2021/07/16 12:19:55;;;;;;;4.25;3.53;;;37.50;90.10;;;;;;5084370;28;20035;-74
2021/07/16 12:22:24;;;;;;;8.85;3.53;;;37.30;90.30;;;;;;5084914;28;20513;-74
2021/07/16 12:24:51;;;;;;;4.80;3.97;;;37.20;90.10;;;;;;5079709;28;20106;-74
2021/07/16 12:27:18;;;;;;;7.63;3.75;;;36.90;90.40;;;;;;5069490;28;20485;-74
2021/07/16 12:29:52;;;;;;;9.10;4.43;;;36.90;90.50;;;;;;5083223;28;20046;-74
2021/07/16 12:32:19;;;;;;;7.53;3.13;;;36.50;91.40;;;;;;5082784;28;20475;-73
2021/07/16 12:34:45;;;;;;;6.03;3.10;;;36.40;91.30;;;;;;5079307;28;20036;-73
2021/07/16 12:37:14;;;;;;;6.45;3.45;;;35.30;91.90;;;;;;5079775;28;20146;-73
2021/07/16 12:39:42;;;;;;;7.28;3.30;;;34.80;92.60;;;;;;5081392;28;20426;-74
2021/07/16 12:42:12;;;;;;;6.45;3.58;;;34.70;93.00;;;;;;5085584;28;20035;-73
2021/07/16 12:44:38;;;;;;;6.38;3.30;;;34.60;92.60;;;;;;5080548;28;20044;-73
2021/07/16 12:47:04;;;;;;;6.93;3.20;;;34.30;92.70;;;;;;5084011;28;20036;-73